createdAt,value
2022-09-22T00:01:13.737Z,2.80
2022-09-22T00:06:11.309Z,2.60
2022-09-22T00:08:41.084Z,2.80
2022-09-22T00:11:12.436Z,2.60
2022-09-22T00:13:39.443Z,2.60
2022-09-22T00:16:10.483Z,2.60
2022-09-22T00:18:38.570Z,2.50
2022-09-22T00:21:07.564Z,3.30
2022-09-22T00:23:34.516Z,3.00
2022-09-22T00:26:07.716Z,2.70
2022-09-22T00:28:34.667Z,3.20
2022-09-22T00:31:10.710Z,2.30
2022-09-22T00:33:40.200Z,2.60
2022-09-22T00:36:06.991Z,2.50
2022-09-22T00:38:33.942Z,2.80
2022-09-22T00:41:01.413Z,2.60
2022-09-22T00:43:29.897Z,2.60
2022-09-22T00:46:00.539Z,2.90
2022-09-22T00:48:28.414Z,2.80
2022-09-22T00:50:55.775Z,2.90
2022-09-22T00:53:22.729Z,2.70
2022-09-22T00:55:56.030Z,2.80
2022-09-22T00:58:28.826Z,3.80
2022-09-22T01:00:57.548Z,3.30
2022-09-22T01:03:29.699Z,3.10
2022-09-22T01:05:58.388Z,2.90
2022-09-22T01:08:25.861Z,3.60
2022-09-22T01:10:54.246Z,3.20
2022-09-22T01:13:25.865Z,2.70
2022-09-22T01:16:29.585Z,3.50
2022-09-22T01:19:22.799Z,2.90
2022-09-22T01:21:53.098Z,3.40
2022-09-22T01:24:26.532Z,4.10
2022-09-22T01:27:06.897Z,3.20
2022-09-22T01:30:04.890Z,3.50
2022-09-22T01:32:34.703Z,3.20
2022-09-22T01:35:06.471Z,3.50
2022-09-22T01:37:43.767Z,3.70
2022-09-22T01:40:19.622Z,3.30
2022-09-22T01:42:52.600Z,3.70
2022-09-22T01:45:21.848Z,3.40
2022-09-22T01:47:54.666Z,3.50
2022-09-22T01:50:29.760Z,3.10
2022-09-22T01:52:58.862Z,3.30
2022-09-22T01:55:35.395Z,3.60
2022-09-22T01:58:05.871Z,3.40
2022-09-22T02:00:35.278Z,3.60
2022-09-22T02:03:10.730Z,3.20
2022-09-22T02:05:45.310Z,3.60
2022-09-22T02:08:22.162Z,3.10
2022-09-22T02:10:48.893Z,3.40
2022-09-22T02:13:15.850Z,3.30
2022-09-22T02:16:01.983Z,3.40
2022-09-22T02:18:34.243Z,3.10
2022-09-22T02:21:01.500Z,3.20
2022-09-22T02:23:29.076Z,2.90
2022-09-22T02:25:56.427Z,2.70
2022-09-22T02:28:23.588Z,3.20
2022-09-22T02:31:17.650Z,3.30
2022-09-22T02:33:39.409Z,3.30
2022-09-22T02:36:32.471Z,3.10
2022-09-22T02:39:01.572Z,2.80
2022-09-22T02:41:50.027Z,3.20
2022-09-22T02:44:24.077Z,2.90
2022-09-22T02:47:01.385Z,2.90
2022-09-22T02:49:29.612Z,3.00
2022-09-22T02:51:56.579Z,3.40
2022-09-22T02:54:25.672Z,3.20
2022-09-22T02:56:53.945Z,3.50
2022-09-22T02:59:20.689Z,4.20
2022-09-22T03:01:48.320Z,3.90
2022-09-22T03:04:15.713Z,3.40
2022-09-22T03:06:42.556Z,3.20
2022-09-22T03:09:10.222Z,3.10
2022-09-22T03:11:37.680Z,3.10
2022-09-22T03:14:04.319Z,3.50
2022-09-22T03:16:31.471Z,3.40
2022-09-22T03:18:58.673Z,3.70
2022-09-22T03:21:26.700Z,2.90
2022-09-22T03:23:53.954Z,3.20
2022-09-22T03:26:21.414Z,3.40
2022-09-22T03:28:48.361Z,3.00
2022-09-22T03:31:15.453Z,3.70
2022-09-22T03:33:42.778Z,3.20
2022-09-22T03:36:09.832Z,3.40
2022-09-22T03:38:36.686Z,3.60
2022-09-22T03:41:04.655Z,3.30
2022-09-22T03:43:31.607Z,3.20
2022-09-22T03:46:00.190Z,3.40
2022-09-22T03:48:28.575Z,3.10
2022-09-22T03:50:55.822Z,2.70
2022-09-22T03:53:23.228Z,2.70
2022-09-22T03:55:50.648Z,3.20
2022-09-22T03:58:20.257Z,3.30
2022-09-22T04:00:48.435Z,3.30
2022-09-22T04:03:16.918Z,2.50
2022-09-22T04:05:52.363Z,2.70
2022-09-22T04:08:19.619Z,2.70
2022-09-22T04:10:46.463Z,2.80
2022-09-22T04:13:15.149Z,2.60
2022-09-22T04:15:42.307Z,2.70
2022-09-22T04:18:09.869Z,3.10
2022-09-22T04:20:38.840Z,2.70
2022-09-22T04:23:05.658Z,2.70
2022-09-22T04:25:32.351Z,2.90
2022-09-22T04:28:02.302Z,3.10
2022-09-22T04:30:33.171Z,2.70
2022-09-22T04:33:00.666Z,3.10
2022-09-22T04:35:27.921Z,3.30
2022-09-22T04:37:55.552Z,4.20
2022-09-22T04:40:22.873Z,4.50
2022-09-22T04:42:50.809Z,3.90
2022-09-22T04:45:18.371Z,4.80
2022-09-22T04:47:46.853Z,4.50
2022-09-22T04:50:14.117Z,4.50
2022-09-22T04:52:46.817Z,4.30
2022-09-22T04:55:15.295Z,3.70
2022-09-22T04:57:56.482Z,4.20
2022-09-22T05:00:25.954Z,4.80
2022-09-22T05:02:53.201Z,4.40
2022-09-22T05:05:20.108Z,4.40
2022-09-22T05:07:48.513Z,4.20
2022-09-22T05:10:19.501Z,3.90
2022-09-22T05:12:46.196Z,4.30
2022-09-22T05:15:16.535Z,3.70
2022-09-22T05:17:49.221Z,3.80
2022-09-22T05:20:17.715Z,3.80
2022-09-22T05:22:44.665Z,4.20
2022-09-22T05:25:13.573Z,4.90
2022-09-22T05:27:47.905Z,7.10
2022-09-22T05:30:16.696Z,5.20
2022-09-22T05:32:45.700Z,5.50
2022-09-22T05:35:13.889Z,4.70
2022-09-22T05:37:42.481Z,4.20
2022-09-22T05:40:10.487Z,4.20
2022-09-22T05:42:51.237Z,3.80
2022-09-22T05:45:19.933Z,3.80
2022-09-22T05:47:46.711Z,4.00
2022-09-22T05:50:14.831Z,4.10
2022-09-22T05:52:41.782Z,4.20
2022-09-22T05:55:11.540Z,4.10
2022-09-22T05:57:39.242Z,4.60
2022-09-22T06:00:07.488Z,4.20
2022-09-22T06:02:36.205Z,3.90
2022-09-22T06:05:03.455Z,3.70
2022-09-22T06:07:33.075Z,3.80
2022-09-22T06:10:00.347Z,7.70
2022-09-22T06:12:27.703Z,8.20
2022-09-22T06:14:56.503Z,9.60
2022-09-22T06:17:24.369Z,8.10
2022-09-22T06:19:51.729Z,8.10
2022-09-22T06:22:19.085Z,5.20
2022-09-22T06:24:46.233Z,4.70
2022-09-22T06:27:14.409Z,5.20
2022-09-22T06:29:41.054Z,5.60
2022-09-22T06:32:09.380Z,4.70
2022-09-22T06:34:38.040Z,3.60
2022-09-22T06:37:08.243Z,4.20
2022-09-22T06:39:37.829Z,4.60
2022-09-22T06:44:33.281Z,3.50
2022-09-22T06:47:04.851Z,3.80
2022-09-22T06:49:31.682Z,3.40
2022-09-22T06:51:58.423Z,3.80
2022-09-22T06:54:25.990Z,7.80
2022-09-22T06:56:53.548Z,7.90
2022-09-22T06:59:20.371Z,8.60
2022-09-22T07:01:47.629Z,99.60
2022-09-22T07:04:14.718Z,95.10
2022-09-22T07:06:42.900Z,74.10
2022-09-22T07:09:11.999Z,38.40
2022-09-22T07:11:40.682Z,17.00
2022-09-22T07:14:08.127Z,29.20
2022-09-22T07:16:35.752Z,14.30
2022-09-22T07:19:08.723Z,27.60
2022-09-22T07:21:37.314Z,23.50
2022-09-22T07:24:07.707Z,17.70
2022-09-22T07:29:08.057Z,10.60
2022-09-22T07:31:36.334Z,6.40
2022-09-22T07:34:03.358Z,8.00
2022-09-22T07:36:31.947Z,4.80
2022-09-22T07:39:07.158Z,4.90
2022-09-22T07:41:42.547Z,2.90
2022-09-22T07:44:30.397Z,2.20
2022-09-22T07:46:58.264Z,2.60
2022-09-22T07:49:25.942Z,2.60
2022-09-22T07:51:56.986Z,2.90
2022-09-22T07:54:24.964Z,3.20
2022-09-22T07:56:57.545Z,2.80
2022-09-22T07:59:24.597Z,2.20
2022-09-22T08:01:51.766Z,2.10
2022-09-22T08:04:22.263Z,1.80
2022-09-22T08:06:55.512Z,2.60
2022-09-22T08:09:23.980Z,2.30
2022-09-22T08:11:52.467Z,2.20
2022-09-22T08:14:21.975Z,2.20
2022-09-22T08:16:51.057Z,2.20
2022-09-22T08:19:17.936Z,1.60
2022-09-22T08:21:49.178Z,1.90
2022-09-22T08:24:21.755Z,1.90
2022-09-22T08:26:52.776Z,1.90
2022-09-22T08:29:20.641Z,2.40
2022-09-22T08:31:48.806Z,2.60
2022-09-22T08:34:16.709Z,3.20
2022-09-22T08:36:46.682Z,2.40
2022-09-22T08:39:14.240Z,1.70
2022-09-22T08:41:59.619Z,1.20
2022-09-22T08:44:29.391Z,2.00
2022-09-22T08:49:56.951Z,1.60
2022-09-22T08:52:38.244Z,1.70
2022-09-22T08:55:10.920Z,1.40
2022-09-22T08:57:56.463Z,1.70
2022-09-22T09:00:24.092Z,1.70
2022-09-22T09:03:00.247Z,1.70
2022-09-22T09:05:40.879Z,1.40
2022-09-22T09:08:19.399Z,3.80
2022-09-22T09:10:56.896Z,4.00
2022-09-22T09:13:31.936Z,2.70
2022-09-22T09:16:19.272Z,2.10
2022-09-22T09:18:56.551Z,1.60
2022-09-22T09:21:23.498Z,1.50
2022-09-22T09:26:40.950Z,1.80
2022-09-22T09:29:07.960Z,1.30
2022-09-22T09:31:41.098Z,1.50
2022-09-22T09:34:11.684Z,1.40
2022-09-22T09:36:40.642Z,1.40
2022-09-22T09:39:17.913Z,1.90
2022-09-22T09:41:49.573Z,1.30
2022-09-22T09:44:20.463Z,1.30
2022-09-22T09:47:05.288Z,1.20
2022-09-22T09:49:32.955Z,1.20
2022-09-22T09:52:01.235Z,1.50
2022-09-22T09:54:28.371Z,1.70
2022-09-22T09:57:10.399Z,1.90
2022-09-22T09:59:58.030Z,1.50
2022-09-22T10:02:29.278Z,2.80
2022-09-22T10:05:01.135Z,1.70
2022-09-22T10:10:23.473Z,2.00
2022-09-22T10:12:52.172Z,1.50
2022-09-22T10:15:24.255Z,1.40
2022-09-22T10:17:53.042Z,1.50
2022-09-22T10:20:25.964Z,4.70
2022-09-22T10:22:54.511Z,2.40
2022-09-22T10:25:25.353Z,2.80
2022-09-22T10:28:15.234Z,3.40
2022-09-22T10:30:44.677Z,2.50
2022-09-22T10:33:19.819Z,1.70
2022-09-22T10:35:54.094Z,1.60
2022-09-22T10:38:24.732Z,1.40
2022-09-22T10:41:07.404Z,1.80
2022-09-22T10:43:45.345Z,1.80
2022-09-22T10:46:37.946Z,1.60
2022-09-22T10:50:02.791Z,1.40
2022-09-22T10:52:42.432Z,1.80
2022-09-22T10:55:30.471Z,1.70
2022-09-22T10:58:09.397Z,1.80
2022-09-22T11:00:39.927Z,1.60
2022-09-22T11:06:23.945Z,1.60
2022-09-22T11:09:23.192Z,1.70
2022-09-22T11:12:16.254Z,1.80
2022-09-22T11:14:49.541Z,3.00
2022-09-22T11:17:32.056Z,5.10
2022-09-22T11:20:26.954Z,5.20
2022-09-22T11:23:03.421Z,2.60
2022-09-22T11:25:42.656Z,1.90
2022-09-22T11:28:47.185Z,1.60
2022-09-22T11:31:31.440Z,1.90
2022-09-22T11:34:22.656Z,1.40
2022-09-22T11:37:27.293Z,1.60
2022-09-22T11:40:01.271Z,1.90
2022-09-22T11:42:38.494Z,1.90
2022-09-22T11:45:43.648Z,1.90
2022-09-22T11:48:42.845Z,1.30
2022-09-22T11:51:33.957Z,2.00
2022-09-22T11:54:04.419Z,1.40
2022-09-22T11:57:06.981Z,1.80
2022-09-22T11:59:39.765Z,1.50
2022-09-22T12:02:32.260Z,1.40
2022-09-22T12:05:02.346Z,1.20
2022-09-22T12:07:35.151Z,1.40
2022-09-22T12:10:12.728Z,1.30
2022-09-22T12:12:43.359Z,1.30
2022-09-22T12:15:21.902Z,1.40
2022-09-22T12:17:54.879Z,2.00
2022-09-22T12:20:35.045Z,2.00
2022-09-22T12:23:08.444Z,1.70
2022-09-22T12:25:48.994Z,1.90
2022-09-22T12:28:25.594Z,1.40
2022-09-22T12:31:04.533Z,1.30
2022-09-22T12:33:33.273Z,1.60
2022-09-22T12:36:00.986Z,1.10
2022-09-22T12:38:30.090Z,1.30
2022-09-22T12:40:59.300Z,2.20
2022-09-22T12:43:27.366Z,1.30
2022-09-22T12:45:55.267Z,3.00
2022-09-22T12:48:30.588Z,3.10
2022-09-22T12:51:25.908Z,4.60
2022-09-22T12:54:22.352Z,2.30
2022-09-22T12:59:37.552Z,1.60
2022-09-22T13:02:16.860Z,7.70
2022-09-22T13:04:56.655Z,17.10
2022-09-22T13:07:40.701Z,17.00
2022-09-22T13:10:24.599Z,7.30
2022-09-22T13:13:00.424Z,3.60
2022-09-22T13:15:39.551Z,4.30
2022-09-22T13:18:29.068Z,5.60
2022-09-22T13:20:57.411Z,3.00
2022-09-22T13:23:25.885Z,3.20
2022-09-22T13:25:54.996Z,7.40
2022-09-22T13:28:23.818Z,5.40
2022-09-22T13:31:16.416Z,2.50
2022-09-22T13:33:43.585Z,2.50
2022-09-22T13:36:18.731Z,2.00
2022-09-22T13:38:53.970Z,2.30
2022-09-22T13:41:23.950Z,4.60
2022-09-22T13:43:56.361Z,3.20
2022-09-22T13:46:47.678Z,3.00
2022-09-22T13:49:34.183Z,2.10
2022-09-22T13:52:04.754Z,2.30
2022-09-22T13:54:33.402Z,1.90
2022-09-22T13:57:01.015Z,2.20
2022-09-22T13:59:34.487Z,2.50
2022-09-22T14:02:11.290Z,3.80
2022-09-22T14:04:49.778Z,4.80
2022-09-22T14:07:16.433Z,3.00
2022-09-22T14:09:43.466Z,2.50
2022-09-22T14:12:11.336Z,2.20
2022-09-22T14:14:39.928Z,2.40
2022-09-22T14:17:19.262Z,1.80
2022-09-22T14:19:54.711Z,2.00
2022-09-22T14:22:24.239Z,1.70
2022-09-22T14:24:55.473Z,1.50
2022-09-22T14:27:31.939Z,1.80
2022-09-22T14:29:58.685Z,2.10
2022-09-22T14:32:32.909Z,1.80
2022-09-22T14:35:02.479Z,2.10
2022-09-22T14:37:38.759Z,2.50
2022-09-22T14:40:13.813Z,2.00
2022-09-22T14:42:41.689Z,2.30
2022-09-22T14:45:08.943Z,2.50
2022-09-22T14:47:40.032Z,2.30
2022-09-22T14:50:19.406Z,2.30
2022-09-22T14:52:55.606Z,3.10
2022-09-22T14:55:33.933Z,2.70
2022-09-22T14:58:29.051Z,2.90
2022-09-22T15:01:18.046Z,3.40
2022-09-22T15:04:02.275Z,3.60
2022-09-22T15:06:39.366Z,3.00
2022-09-22T15:09:07.897Z,4.10
2022-09-22T15:11:46.719Z,4.30
2022-09-22T15:14:32.266Z,4.00
2022-09-22T15:17:22.671Z,3.20
2022-09-22T15:19:56.535Z,2.70
2022-09-22T15:22:23.605Z,3.30
2022-09-22T15:24:50.593Z,3.70
2022-09-22T15:27:18.990Z,2.50
2022-09-22T15:29:48.078Z,2.80
2022-09-22T15:32:16.051Z,2.80
2022-09-22T15:34:44.237Z,2.20
2022-09-22T15:37:20.720Z,3.20
2022-09-22T15:39:47.671Z,3.60
2022-09-22T15:42:15.130Z,2.80
2022-09-22T15:44:43.444Z,2.90
2022-09-22T15:47:13.851Z,2.80
2022-09-22T15:52:11.053Z,3.80
2022-09-22T15:54:38.387Z,4.40
2022-09-22T15:57:06.007Z,5.30
2022-09-22T15:59:33.209Z,5.10
2022-09-22T16:02:00.670Z,9.20
2022-09-22T16:04:31.818Z,52.10
2022-09-22T16:09:27.756Z,115.40
2022-09-22T16:11:55.321Z,154.80
2022-09-22T16:14:24.830Z,225.40
2022-09-22T16:16:52.188Z,147.90
2022-09-22T16:19:19.854Z,90.00
2022-09-22T16:21:51.312Z,54.60
2022-09-22T16:24:18.466Z,29.50
2022-09-22T16:26:45.617Z,18.80
2022-09-22T16:29:12.571Z,12.60
2022-09-22T16:31:39.241Z,9.80
2022-09-22T16:34:07.352Z,8.40
2022-09-22T16:36:35.469Z,7.90
2022-09-22T16:39:02.975Z,8.60
2022-09-22T16:41:31.582Z,8.40
2022-09-22T16:43:58.962Z,8.30
2022-09-22T16:46:26.120Z,8.30
2022-09-22T16:48:59.665Z,8.00
2022-09-22T16:51:27.204Z,8.40
2022-09-22T16:53:54.360Z,9.80
2022-09-22T16:56:23.109Z,10.40
2022-09-22T16:58:50.207Z,10.60
2022-09-22T17:01:19.786Z,9.00
2022-09-22T17:03:49.132Z,7.60
2022-09-22T17:06:16.800Z,6.30
2022-09-22T17:08:45.395Z,5.80
2022-09-22T17:11:13.374Z,5.20
2022-09-22T17:13:42.826Z,4.60
2022-09-22T17:16:24.406Z,4.30
2022-09-22T17:18:52.365Z,4.50
2022-09-22T17:21:22.800Z,4.50
2022-09-22T17:23:51.899Z,4.60
2022-09-22T17:26:19.777Z,4.50
2022-09-22T17:28:47.038Z,4.40
2022-09-22T17:31:14.489Z,4.50
2022-09-22T17:33:47.886Z,4.80
2022-09-22T17:36:21.934Z,4.70
2022-09-22T17:38:52.762Z,4.60
2022-09-22T17:41:24.840Z,4.20
2022-09-22T17:43:55.174Z,4.40
2022-09-22T17:46:24.565Z,4.20
2022-09-22T17:49:09.961Z,4.10
2022-09-22T17:52:00.464Z,4.40
2022-09-22T17:54:50.662Z,4.40
2022-09-22T17:57:23.659Z,5.00
2022-09-22T17:59:51.227Z,4.80
2022-09-22T18:02:19.068Z,5.70
2022-09-22T18:04:46.766Z,5.30
2022-09-22T18:07:17.507Z,5.60
2022-09-22T18:09:46.708Z,5.50
2022-09-22T18:12:16.013Z,5.60
2022-09-22T18:14:46.653Z,5.70
2022-09-22T18:19:43.988Z,5.90
2022-09-22T18:22:20.619Z,6.60
2022-09-22T18:24:50.942Z,6.10
2022-09-22T18:29:53.036Z,6.40
2022-09-22T18:32:20.809Z,6.30
2022-09-22T18:34:50.734Z,5.80
2022-09-22T18:37:17.854Z,5.80
2022-09-22T18:39:45.360Z,6.00
2022-09-22T18:42:12.727Z,5.90
2022-09-22T18:44:40.907Z,5.80
2022-09-22T18:47:12.428Z,5.40
2022-09-22T18:52:11.861Z,5.50
2022-09-22T18:54:42.555Z,5.80
2022-09-22T18:57:13.708Z,5.40
2022-09-22T18:59:40.871Z,5.90
2022-09-22T19:02:11.792Z,6.50
2022-09-22T19:07:26.822Z,5.90
2022-09-22T19:09:54.492Z,6.40
2022-09-22T19:12:21.241Z,6.40
2022-09-22T19:14:49.635Z,6.30
2022-09-22T19:17:19.357Z,6.80
2022-09-22T19:19:48.452Z,7.40
2022-09-22T19:22:16.422Z,7.00
2022-09-22T19:24:46.848Z,6.70
2022-09-22T19:27:15.235Z,7.20
2022-09-22T19:29:42.284Z,7.60
2022-09-22T19:32:09.750Z,8.20
2022-09-22T19:34:37.417Z,11.80
2022-09-22T19:37:04.879Z,13.80
2022-09-22T19:39:32.344Z,13.90
2022-09-22T19:42:02.576Z,13.50
2022-09-22T19:44:30.163Z,10.50
2022-09-22T19:46:58.322Z,10.40
2022-09-22T19:49:25.065Z,9.80
2022-09-22T19:51:53.037Z,9.00
2022-09-22T19:54:20.507Z,9.20
2022-09-22T19:56:47.671Z,10.00
2022-09-22T19:59:19.237Z,10.60
2022-09-22T20:01:47.497Z,10.20
2022-09-22T20:04:18.896Z,10.50
2022-09-22T20:06:45.849Z,9.60
2022-09-22T20:09:12.901Z,10.90
2022-09-22T20:11:45.593Z,10.40
2022-09-22T20:14:23.092Z,9.90
2022-09-22T20:16:54.246Z,10.40
2022-09-22T20:19:21.900Z,11.90
2022-09-22T20:21:51.206Z,10.90
2022-09-22T20:24:19.406Z,11.10
2022-09-22T20:26:46.362Z,12.20
2022-09-22T20:29:16.511Z,11.80
2022-09-22T20:31:45.591Z,12.40
2022-09-22T20:34:14.495Z,12.00
2022-09-22T20:36:42.814Z,12.40
2022-09-22T20:39:13.213Z,13.10
2022-09-22T20:41:41.196Z,13.30
2022-09-22T20:44:14.091Z,13.60
2022-09-22T20:46:44.364Z,13.70
2022-09-22T20:49:14.045Z,13.50
2022-09-22T20:51:41.611Z,14.10
2022-09-22T20:54:08.868Z,13.40
2022-09-22T20:56:39.440Z,14.60
2022-09-22T20:59:09.431Z,13.40
2022-09-22T21:01:36.875Z,14.80
2022-09-22T21:04:04.466Z,14.80
2022-09-22T21:06:31.419Z,13.70
2022-09-22T21:09:17.018Z,15.30
2022-09-22T21:11:46.621Z,14.00
2022-09-22T21:14:14.904Z,15.40
2022-09-22T21:16:42.572Z,15.90
2022-09-22T21:19:09.523Z,14.20
2022-09-22T21:21:37.191Z,15.80
2022-09-22T21:24:05.479Z,15.30
2022-09-22T21:26:33.584Z,14.50
2022-09-22T21:29:01.327Z,15.80
2022-09-22T21:31:28.370Z,15.50
2022-09-22T21:33:55.429Z,15.70
2022-09-22T21:36:22.689Z,17.10
2022-09-22T21:38:54.672Z,16.70
2022-09-22T21:41:23.247Z,14.70
2022-09-22T21:43:50.303Z,15.20
2022-09-22T21:46:21.405Z,16.40
2022-09-22T21:48:48.614Z,15.50
2022-09-22T21:51:18.936Z,14.80
2022-09-22T21:53:47.940Z,15.70
2022-09-22T21:56:16.637Z,15.50
2022-09-22T21:58:47.067Z,15.30
2022-09-22T22:01:19.390Z,15.80
2022-09-22T22:03:47.752Z,14.70
2022-09-22T22:06:28.091Z,14.00
2022-09-22T22:09:04.052Z,13.80
2022-09-22T22:11:40.131Z,13.70
2022-09-22T22:14:08.790Z,13.80
2022-09-22T22:16:43.855Z,13.20
2022-09-22T22:19:12.140Z,12.10
2022-09-22T22:21:43.904Z,12.10
2022-09-22T22:24:17.827Z,12.20
2022-09-22T22:26:46.829Z,12.40
2022-09-22T22:29:13.872Z,11.70
2022-09-22T22:31:43.054Z,12.00
2022-09-22T22:34:11.368Z,12.00
2022-09-22T22:36:38.827Z,11.80
2022-09-22T22:39:05.985Z,12.60
2022-09-22T22:41:33.953Z,11.60
2022-09-22T22:44:01.931Z,11.30
2022-09-22T22:46:29.646Z,10.90
2022-09-22T22:48:57.136Z,11.90
2022-09-22T22:51:24.019Z,10.90
2022-09-22T22:53:51.421Z,11.10
2022-09-22T22:56:21.526Z,10.90
2022-09-22T22:58:50.094Z,10.20
2022-09-22T23:01:21.823Z,9.70
2022-09-22T23:03:52.721Z,10.60
2022-09-22T23:06:24.686Z,9.20
2022-09-22T23:08:52.046Z,8.90
2022-09-22T23:11:22.681Z,9.70
2022-09-22T23:16:23.140Z,7.80
2022-09-22T23:18:51.213Z,9.30
2022-09-22T23:21:20.065Z,9.40
2022-09-22T23:23:47.376Z,8.60
2022-09-22T23:26:15.040Z,7.80
2022-09-22T23:28:42.506Z,7.50
2022-09-22T23:31:11.781Z,8.10
2022-09-22T23:33:44.875Z,6.90
2022-09-22T23:36:19.338Z,6.90
2022-09-22T23:38:46.898Z,7.30
2022-09-22T23:41:14.873Z,7.10
2022-09-22T23:43:42.238Z,7.10
2022-09-22T23:46:09.728Z,6.30
2022-09-22T23:48:36.758Z,7.00
2022-09-22T23:51:03.920Z,5.60
2022-09-22T23:53:33.362Z,5.50
2022-09-22T23:56:02.037Z,5.70
2022-09-22T23:58:29.740Z,5.90
